createdAt,value
2018-04-29T00:00:01.568Z,70.20
2018-04-29T00:04:04.099Z,69.70
2018-04-29T00:08:07.392Z,70.30
2018-04-29T00:12:09.929Z,70.30
2018-04-29T00:16:12.444Z,69.50
2018-04-29T00:20:14.970Z,71.10
2018-04-29T00:24:17.644Z,69.80
2018-04-29T00:28:20.189Z,70.00
2018-04-29T00:32:22.716Z,70.00
2018-04-29T00:36:26.011Z,70.40
2018-04-29T00:40:29.291Z,70.80
2018-04-29T00:44:31.834Z,70.90
2018-04-29T00:48:34.380Z,70.40
2018-04-29T00:52:37.674Z,71.60
2018-04-29T00:56:40.203Z,71.50
2018-04-29T01:00:42.716Z,70.80
2018-04-29T01:04:45.253Z,71.10
2018-04-29T01:08:47.799Z,70.90
2018-04-29T01:12:50.330Z,70.20
2018-04-29T01:16:52.868Z,70.90
2018-04-29T01:20:55.388Z,70.70
2018-04-29T01:24:57.915Z,69.70
2018-04-29T01:29:00.443Z,70.90
2018-04-29T01:33:03.744Z,70.60
2018-04-29T01:37:07.048Z,71.40
2018-04-29T01:41:10.332Z,70.90
2018-04-29T01:45:12.862Z,70.90
2018-04-29T01:49:15.407Z,71.30
2018-04-29T01:53:17.940Z,70.70
2018-04-29T01:57:20.491Z,71.90
2018-04-29T02:01:23.777Z,70.90
2018-04-29T02:05:26.310Z,70.90
2018-04-29T02:09:28.839Z,70.30
2018-04-29T02:13:31.384Z,71.50
2018-04-29T02:17:33.928Z,71.50
2018-04-29T02:21:37.517Z,72.90
2018-04-29T02:25:40.052Z,73.00
2018-04-29T02:29:42.584Z,71.30
2018-04-29T02:33:45.122Z,71.70
2018-04-29T02:37:47.669Z,71.90
2018-04-29T02:41:50.188Z,72.50
2018-04-29T02:45:52.732Z,72.60
2018-04-29T02:49:55.268Z,71.80
2018-04-29T02:53:57.809Z,71.10
2018-04-29T02:58:00.488Z,71.60
2018-04-29T03:02:03.003Z,70.80
2018-04-29T03:06:06.303Z,70.90
2018-04-29T03:10:09.607Z,72.20
2018-04-29T03:14:12.157Z,72.20
2018-04-29T03:18:14.700Z,72.10
2018-04-29T03:22:17.212Z,72.30
2018-04-29T03:26:19.752Z,72.00
2018-04-29T03:30:22.284Z,72.30
2018-04-29T03:34:24.844Z,73.00
2018-04-29T03:38:27.383Z,71.70
2018-04-29T03:42:29.898Z,72.10
2018-04-29T03:46:32.440Z,71.60
2018-04-29T03:50:34.976Z,73.00
2018-04-29T03:54:37.524Z,72.50
2018-04-29T03:58:51.860Z,72.50
2018-04-29T04:03:06.165Z,73.20
2018-04-29T04:07:08.686Z,72.80
2018-04-29T04:11:11.235Z,72.10
2018-04-29T04:15:13.770Z,72.00
2018-04-29T04:19:16.303Z,72.60
2018-04-29T04:23:18.816Z,71.70
2018-04-29T04:27:21.343Z,73.20
2018-04-29T04:31:23.920Z,73.60
2018-04-29T04:35:26.453Z,73.20
2018-04-29T04:39:28.992Z,72.70
2018-04-29T04:43:31.530Z,73.10
2018-04-29T04:47:34.048Z,72.40
2018-04-29T04:51:36.592Z,71.80
2018-04-29T04:55:39.140Z,72.00
2018-04-29T04:59:41.704Z,72.90
2018-04-29T05:03:44.230Z,72.80
2018-04-29T05:07:47.514Z,71.80
2018-04-29T05:11:50.049Z,71.80
2018-04-29T05:15:52.584Z,73.60
2018-04-29T05:19:55.126Z,72.30
2018-04-29T05:23:57.659Z,72.10
2018-04-29T05:28:00.941Z,72.90
2018-04-29T05:32:03.483Z,72.80
2018-04-29T05:36:06.018Z,72.90
2018-04-29T05:40:08.555Z,72.20
2018-04-29T05:44:11.102Z,73.20
2018-04-29T05:48:14.399Z,72.10
2018-04-29T05:52:16.943Z,72.10
2018-04-29T05:56:19.484Z,72.50
2018-04-29T06:00:22.809Z,72.00
2018-04-29T06:04:29.035Z,72.00
2018-04-29T06:08:31.543Z,71.70
2018-04-29T06:12:34.848Z,72.00
2018-04-29T06:16:38.147Z,71.40
2018-04-29T06:20:41.453Z,73.10
2018-04-29T06:24:45.166Z,72.40
2018-04-29T06:28:48.443Z,72.10
2018-04-29T06:32:50.975Z,72.00
2018-04-29T06:36:53.516Z,72.40
2018-04-29T06:40:56.052Z,72.30
2018-04-29T06:44:58.583Z,72.10
2018-04-29T06:49:01.128Z,72.30
2018-04-29T06:53:03.657Z,73.10
2018-04-29T06:57:06.207Z,71.60
2018-04-29T07:01:08.744Z,71.60
2018-04-29T07:05:11.295Z,71.80
2018-04-29T07:09:13.832Z,73.90
2018-04-29T07:13:16.348Z,71.10
2018-04-29T07:17:18.884Z,72.10
2018-04-29T07:21:22.189Z,70.50
2018-04-29T07:25:24.747Z,70.40
2018-04-29T07:29:27.282Z,75.10
2018-04-29T07:33:30.564Z,71.10
2018-04-29T07:37:33.863Z,73.00
2018-04-29T07:41:37.240Z,72.00
2018-04-29T07:45:40.698Z,71.40
2018-04-29T07:49:43.247Z,71.40
2018-04-29T07:53:45.770Z,70.60
2018-04-29T07:57:48.299Z,72.50
2018-04-29T08:01:50.827Z,71.00
2018-04-29T08:05:53.371Z,72.20
2018-04-29T08:09:55.904Z,72.60
2018-04-29T08:13:58.419Z,71.10
2018-04-29T08:18:00.956Z,70.50
2018-04-29T08:22:04.251Z,70.90
2018-04-29T08:26:07.569Z,71.80
2018-04-29T08:30:10.206Z,72.40
2018-04-29T08:34:12.640Z,72.10
2018-04-29T08:38:15.169Z,71.10
2018-04-29T08:42:17.711Z,71.50
2018-04-29T08:46:20.251Z,71.40
2018-04-29T08:54:31.739Z,69.60
2018-04-29T08:58:34.271Z,69.50
2018-04-29T09:02:36.812Z,69.70
2018-04-29T09:06:39.359Z,70.10
2018-04-29T09:10:42.663Z,68.80
2018-04-29T09:14:45.942Z,68.10
2018-04-29T09:18:48.470Z,68.00
2018-04-29T09:22:51.010Z,69.10
2018-04-29T09:26:53.544Z,68.90
2018-04-29T09:30:56.078Z,68.60
2018-04-29T09:34:58.609Z,67.40
2018-04-29T09:39:01.124Z,68.40
2018-04-29T09:43:03.658Z,67.50
2018-04-29T09:47:06.946Z,67.20
2018-04-29T09:51:10.240Z,67.50
2018-04-29T09:55:12.809Z,67.20
2018-04-29T09:59:15.312Z,65.50
2018-04-29T10:03:20.437Z,66.90
2018-04-29T10:07:22.991Z,68.80
2018-04-29T10:11:25.532Z,68.40
2018-04-29T10:15:28.859Z,69.20
2018-04-29T10:19:31.358Z,69.20
2018-04-29T10:23:33.883Z,67.00
2018-04-29T10:27:36.416Z,66.20
2018-04-29T10:31:39.767Z,63.00
2018-04-29T10:35:42.311Z,68.10
2018-04-29T10:39:44.833Z,67.10
2018-04-29T10:43:47.359Z,64.60
2018-04-29T10:47:50.653Z,66.30
2018-04-29T10:51:54.008Z,63.40
2018-04-29T10:55:56.534Z,63.70
2018-04-29T10:59:59.827Z,65.80
2018-04-29T11:04:02.362Z,65.10
2018-04-29T11:08:04.896Z,63.10
2018-04-29T11:12:07.438Z,66.50
2018-04-29T11:16:09.973Z,66.00
2018-04-29T11:20:13.258Z,63.10
2018-04-29T11:24:15.779Z,62.60
2018-04-29T11:28:19.077Z,64.90
2018-04-29T11:32:22.388Z,65.50
2018-04-29T11:36:24.929Z,65.00
2018-04-29T11:40:27.491Z,60.30
2018-04-29T11:44:29.995Z,66.20
2018-04-29T11:48:32.514Z,64.50
2018-04-29T11:52:35.811Z,64.90
2018-04-29T11:56:39.116Z,62.50
2018-04-29T12:00:42.408Z,65.40
2018-04-29T12:04:44.939Z,64.80
2018-04-29T12:08:47.483Z,64.00
2018-04-29T12:12:50.007Z,64.80
2018-04-29T12:16:52.544Z,64.20
2018-04-29T12:20:55.064Z,63.20
2018-04-29T12:24:57.600Z,60.30
2018-04-29T12:29:00.152Z,65.20
2018-04-29T12:33:02.688Z,61.80
2018-04-29T12:37:05.211Z,62.60
2018-04-29T12:41:07.718Z,65.20
2018-04-29T12:45:10.251Z,65.10
2018-04-29T12:49:12.784Z,64.30
2018-04-29T12:53:15.319Z,65.10
2018-04-29T12:57:18.620Z,64.00
2018-04-29T13:01:21.904Z,63.70
2018-04-29T13:05:24.436Z,64.00
2018-04-29T13:09:26.982Z,66.10
2018-04-29T13:13:29.523Z,64.60
2018-04-29T13:17:32.055Z,64.20
2018-04-29T13:21:34.578Z,63.60
2018-04-29T13:25:37.142Z,63.70
2018-04-29T13:29:40.472Z,65.20
2018-04-29T13:33:42.998Z,65.20
2018-04-29T13:37:45.531Z,64.40
2018-04-29T13:41:48.070Z,62.10
2018-04-29T13:45:50.584Z,64.80
2018-04-29T13:49:53.880Z,62.90
2018-04-29T13:53:57.192Z,62.90
2018-04-29T13:58:00.487Z,65.10
2018-04-29T14:02:03.774Z,59.40
2018-04-29T14:06:06.290Z,59.10
2018-04-29T14:10:08.821Z,59.50
2018-04-29T14:14:11.367Z,60.30
2018-04-29T14:18:13.902Z,57.60
2018-04-29T14:22:16.495Z,64.60
2018-04-29T14:26:18.976Z,63.40
2018-04-29T14:30:21.543Z,64.10
2018-04-29T14:34:24.090Z,60.30
2018-04-29T14:38:26.629Z,64.20
2018-04-29T14:42:29.186Z,66.10
2018-04-29T14:46:31.710Z,66.50
2018-04-29T14:50:34.239Z,64.30
2018-04-29T14:54:36.767Z,64.50
2018-04-29T14:58:39.291Z,63.30
2018-04-29T15:02:41.830Z,65.30
2018-04-29T15:06:44.338Z,65.00
2018-04-29T15:10:47.638Z,66.00
2018-04-29T15:14:50.947Z,66.00
2018-04-29T15:19:00.156Z,66.70
2018-04-29T15:23:02.694Z,66.60
2018-04-29T15:27:05.218Z,66.50
2018-04-29T15:31:07.742Z,67.10
2018-04-29T15:35:11.035Z,66.90
2018-04-29T15:39:13.575Z,66.70
2018-04-29T15:43:16.100Z,65.00
2018-04-29T15:47:18.638Z,66.10
2018-04-29T15:51:21.146Z,66.50
2018-04-29T15:55:23.681Z,65.80
2018-04-29T15:59:26.966Z,66.40
2018-04-29T16:03:30.439Z,67.00
2018-04-29T16:07:33.671Z,67.00
2018-04-29T16:11:36.953Z,67.30
2018-04-29T16:15:39.489Z,67.40
2018-04-29T16:19:42.031Z,67.50
2018-04-29T16:23:45.766Z,67.60
2018-04-29T16:27:49.063Z,69.30
2018-04-29T16:31:52.927Z,69.40
2018-04-29T16:35:55.456Z,69.30
2018-04-29T16:39:57.987Z,68.80
2018-04-29T16:44:01.293Z,68.90
2018-04-29T16:48:03.822Z,68.70
2018-04-29T16:52:06.326Z,67.20
2018-04-29T16:56:08.867Z,67.50
2018-04-29T17:00:11.425Z,67.80
2018-04-29T17:04:13.977Z,67.90
2018-04-29T17:08:17.295Z,68.10
2018-04-29T17:12:19.823Z,68.10
2018-04-29T17:16:22.383Z,68.30
2018-04-29T17:20:24.921Z,68.50
2018-04-29T17:24:27.482Z,68.60
2018-04-29T17:28:30.880Z,68.80
2018-04-29T17:32:33.501Z,68.80
2018-04-29T17:36:36.803Z,68.50
2018-04-29T17:40:39.339Z,68.50
2018-04-29T17:44:41.916Z,68.50
2018-04-29T17:48:44.447Z,69.00
2018-04-29T17:52:46.960Z,68.60
2018-04-29T17:56:50.255Z,69.50
2018-04-29T18:00:53.556Z,68.80
2018-04-29T18:04:56.847Z,69.00
2018-04-29T18:08:59.374Z,69.10
2018-04-29T18:13:01.879Z,68.90
2018-04-29T18:17:04.412Z,69.20
2018-04-29T18:21:08.453Z,68.80
2018-04-29T18:25:11.052Z,68.80
2018-04-29T18:29:13.636Z,68.90
2018-04-29T18:33:19.312Z,69.40
2018-04-29T18:41:47.871Z,69.10
2018-04-29T18:45:50.403Z,69.00
2018-04-29T18:49:52.935Z,69.00
2018-04-29T18:53:55.466Z,70.00
2018-04-29T18:57:57.987Z,69.30
2018-04-29T19:02:00.521Z,69.20
2018-04-29T19:06:03.818Z,69.60
2018-04-29T19:10:06.347Z,69.60
2018-04-29T19:14:08.937Z,69.70
2018-04-29T19:18:11.407Z,69.50
2018-04-29T19:22:13.940Z,69.60
2018-04-29T19:26:16.470Z,69.40
2018-04-29T19:30:18.999Z,69.60
2018-04-29T19:34:21.527Z,69.70
2018-04-29T19:38:24.044Z,70.00
2018-04-29T19:42:26.583Z,69.80
2018-04-29T19:46:30.758Z,70.00
2018-04-29T19:50:33.280Z,70.00
2018-04-29T19:54:36.580Z,70.20
2018-04-29T19:58:39.859Z,70.20
2018-04-29T20:02:43.249Z,70.20
2018-04-29T20:06:47.461Z,70.20
2018-04-29T20:10:49.995Z,70.20
2018-04-29T20:14:53.292Z,70.30
2018-04-29T20:18:55.807Z,70.30
2018-04-29T20:22:58.334Z,70.20
2018-04-29T20:27:00.867Z,70.90
2018-04-29T20:31:04.166Z,70.00
2018-04-29T20:35:07.455Z,70.60
2018-04-29T20:39:10.741Z,69.80
2018-04-29T20:43:13.266Z,69.80
2018-04-29T20:47:15.804Z,69.80
2018-04-29T20:51:18.336Z,70.60
2018-04-29T20:55:20.927Z,70.20
2018-04-29T20:59:24.174Z,70.00
2018-04-29T21:03:26.709Z,70.00
2018-04-29T21:07:29.242Z,69.90
2018-04-29T21:11:31.767Z,70.80
2018-04-29T21:15:35.097Z,70.70
2018-04-29T21:19:37.643Z,70.00
2018-04-29T21:23:40.915Z,71.40
2018-04-29T21:27:43.446Z,71.50
2018-04-29T21:31:45.976Z,70.40
2018-04-29T21:35:48.508Z,70.40
2018-04-29T21:39:51.802Z,70.20
2018-04-29T21:43:55.091Z,70.30
2018-04-29T21:47:57.622Z,70.30
2018-04-29T21:52:00.922Z,71.80
2018-04-29T21:56:03.458Z,71.00
2018-04-29T22:00:06.039Z,70.40
2018-04-29T22:04:08.551Z,70.60
2018-04-29T22:08:12.475Z,70.10
2018-04-29T22:12:15.864Z,70.20
2018-04-29T22:16:19.298Z,70.20
2018-04-29T22:20:21.823Z,71.00
2018-04-29T22:24:24.339Z,72.30
2018-04-29T22:28:27.638Z,73.80
2018-04-29T22:32:30.214Z,73.90
2018-04-29T22:36:32.989Z,71.60
2018-04-29T22:40:35.864Z,71.20
2018-04-29T22:44:38.374Z,72.00
2018-04-29T22:48:41.738Z,73.10
2018-04-29T22:52:44.258Z,71.90
2018-04-29T22:56:46.788Z,71.10
2018-04-29T23:00:49.319Z,71.60
2018-04-29T23:04:51.832Z,72.10
2018-04-29T23:08:54.367Z,71.90
2018-04-29T23:12:56.890Z,73.90
2018-04-29T23:16:59.421Z,71.60
2018-04-29T23:21:01.945Z,71.60
2018-04-29T23:25:04.455Z,71.60
2018-04-29T23:29:08.157Z,72.00
2018-04-29T23:33:10.772Z,73.70
2018-04-29T23:37:14.675Z,71.20
2018-04-29T23:41:17.208Z,71.20
2018-04-29T23:45:19.736Z,71.40
2018-04-29T23:49:22.360Z,72.30
2018-04-29T23:53:24.879Z,72.00
2018-04-29T23:57:27.407Z,74.50
